sensor_id;sensor_type;location;lat;lon;timestamp;P1;durP1;ratioP1;P2;durP2;ratioP2
39208;SDS011;24929;51.982;4.664;2023-05-10T00:00:45;25.73;;;17.80;;
39208;SDS011;24929;51.982;4.664;2023-05-10T00:03:11;24.50;;;17.65;;
39208;SDS011;24929;51.982;4.664;2023-05-10T00:05:36;36.38;;;19.27;;
39208;SDS011;24929;51.982;4.664;2023-05-10T00:08:02;27.23;;;18.77;;
39208;SDS011;24929;51.982;4.664;2023-05-10T00:10:27;27.77;;;18.90;;
39208;SDS011;24929;51.982;4.664;2023-05-10T00:12:52;23.02;;;16.90;;
39208;SDS011;24929;51.982;4.664;2023-05-10T00:15:18;28.92;;;18.80;;
39208;SDS011;24929;51.982;4.664;2023-05-10T00:17:43;30.77;;;18.13;;
39208;SDS011;24929;51.982;4.664;2023-05-10T00:20:09;30.55;;;21.50;;
39208;SDS011;24929;51.982;4.664;2023-05-10T00:22:35;30.13;;;20.95;;
39208;SDS011;24929;51.982;4.664;2023-05-10T00:25:00;32.58;;;22.20;;
39208;SDS011;24929;51.982;4.664;2023-05-10T00:27:26;34.53;;;22.13;;
39208;SDS011;24929;51.982;4.664;2023-05-10T00:29:51;30.77;;;22.23;;
39208;SDS011;24929;51.982;4.664;2023-05-10T00:32:16;30.63;;;21.83;;
39208;SDS011;24929;51.982;4.664;2023-05-10T00:34:42;39.47;;;22.55;;
39208;SDS011;24929;51.982;4.664;2023-05-10T00:37:07;32.17;;;21.33;;
39208;SDS011;24929;51.982;4.664;2023-05-10T00:39:32;31.75;;;22.20;;
39208;SDS011;24929;51.982;4.664;2023-05-10T00:41:58;31.52;;;22.77;;
39208;SDS011;24929;51.982;4.664;2023-05-10T00:44:24;45.30;;;25.80;;
39208;SDS011;24929;51.982;4.664;2023-05-10T00:46:50;42.50;;;24.05;;
39208;SDS011;24929;51.982;4.664;2023-05-10T00:49:15;37.67;;;22.67;;
39208;SDS011;24929;51.982;4.664;2023-05-10T00:51:41;35.70;;;25.27;;
39208;SDS011;24929;51.982;4.664;2023-05-10T00:54:08;40.80;;;24.88;;
39208;SDS011;24929;51.982;4.664;2023-05-10T00:56:36;38.55;;;24.98;;
39208;SDS011;24929;51.982;4.664;2023-05-10T00:59:01;39.65;;;25.58;;
39208;SDS011;24929;51.982;4.664;2023-05-10T01:01:27;33.33;;;21.92;;
39208;SDS011;24929;51.982;4.664;2023-05-10T01:03:53;42.50;;;23.42;;
39208;SDS011;24929;51.982;4.664;2023-05-10T01:06:20;37.50;;;24.05;;
39208;SDS011;24929;51.982;4.664;2023-05-10T01:08:45;36.88;;;24.17;;
39208;SDS011;24929;51.982;4.664;2023-05-10T01:11:12;43.17;;;24.70;;
39208;SDS011;24929;51.982;4.664;2023-05-10T01:13:38;35.10;;;24.30;;
39208;SDS011;24929;51.982;4.664;2023-05-10T01:16:06;37.97;;;24.35;;
39208;SDS011;24929;51.982;4.664;2023-05-10T01:18:37;36.53;;;24.63;;
39208;SDS011;24929;51.982;4.664;2023-05-10T01:24:31;43.45;;;24.48;;
39208;SDS011;24929;51.982;4.664;2023-05-10T01:35:40;32.85;;;22.45;;
39208;SDS011;24929;51.982;4.664;2023-05-10T01:38:17;34.75;;;22.42;;
39208;SDS011;24929;51.982;4.664;2023-05-10T01:41:11;41.38;;;23.05;;
39208;SDS011;24929;51.982;4.664;2023-05-10T01:44:02;47.20;;;24.00;;
39208;SDS011;24929;51.982;4.664;2023-05-10T01:46:42;47.45;;;22.00;;
39208;SDS011;24929;51.982;4.664;2023-05-10T01:49:09;40.00;;;22.60;;
39208;SDS011;24929;51.982;4.664;2023-05-10T01:51:39;33.78;;;23.15;;
39208;SDS011;24929;51.982;4.664;2023-05-10T01:54:09;36.63;;;25.08;;
39208;SDS011;24929;51.982;4.664;2023-05-10T01:56:38;34.15;;;23.85;;
39208;SDS011;24929;51.982;4.664;2023-05-10T01:59:06;43.03;;;23.95;;
39208;SDS011;24929;51.982;4.664;2023-05-10T02:04:04;32.83;;;22.52;;
39208;SDS011;24929;51.982;4.664;2023-05-10T02:06:33;41.47;;;25.08;;
39208;SDS011;24929;51.982;4.664;2023-05-10T02:09:00;38.75;;;24.42;;
39208;SDS011;24929;51.982;4.664;2023-05-10T02:11:27;36.92;;;25.70;;
39208;SDS011;24929;51.982;4.664;2023-05-10T02:13:54;45.80;;;25.92;;
39208;SDS011;24929;51.982;4.664;2023-05-10T02:16:21;44.20;;;27.58;;
39208;SDS011;24929;51.982;4.664;2023-05-10T02:18:49;45.55;;;27.15;;
39208;SDS011;24929;51.982;4.664;2023-05-10T02:21:16;38.00;;;25.10;;
39208;SDS011;24929;51.982;4.664;2023-05-10T02:23:43;45.75;;;27.50;;
39208;SDS011;24929;51.982;4.664;2023-05-10T02:26:10;35.03;;;25.55;;
39208;SDS011;24929;51.982;4.664;2023-05-10T02:28:37;39.28;;;25.98;;
39208;SDS011;24929;51.982;4.664;2023-05-10T02:31:05;40.90;;;25.13;;
39208;SDS011;24929;51.982;4.664;2023-05-10T02:33:31;37.38;;;25.10;;
39208;SDS011;24929;51.982;4.664;2023-05-10T02:35:58;42.08;;;24.35;;
39208;SDS011;24929;51.982;4.664;2023-05-10T02:38:24;43.40;;;26.55;;
39208;SDS011;24929;51.982;4.664;2023-05-10T02:40:50;38.83;;;25.33;;
39208;SDS011;24929;51.982;4.664;2023-05-10T02:43:16;33.67;;;24.73;;
39208;SDS011;24929;51.982;4.664;2023-05-10T02:45:43;42.42;;;25.67;;
39208;SDS011;24929;51.982;4.664;2023-05-10T02:48:12;46.05;;;27.73;;
39208;SDS011;24929;51.982;4.664;2023-05-10T02:50:38;46.90;;;28.05;;
39208;SDS011;24929;51.982;4.664;2023-05-10T02:53:11;40.20;;;25.00;;
39208;SDS011;24929;51.982;4.664;2023-05-10T02:55:42;35.35;;;24.88;;
39208;SDS011;24929;51.982;4.664;2023-05-10T02:58:12;43.35;;;24.45;;
39208;SDS011;24929;51.982;4.664;2023-05-10T03:00:37;34.63;;;24.52;;
39208;SDS011;24929;51.982;4.664;2023-05-10T03:03:03;35.50;;;23.48;;
39208;SDS011;24929;51.982;4.664;2023-05-10T03:05:28;31.95;;;22.10;;
39208;SDS011;24929;51.982;4.664;2023-05-10T03:07:54;35.08;;;22.58;;
39208;SDS011;24929;51.982;4.664;2023-05-10T03:10:19;32.40;;;23.10;;
39208;SDS011;24929;51.982;4.664;2023-05-10T03:13:12;32.50;;;20.30;;
39208;SDS011;24929;51.982;4.664;2023-05-10T03:15:52;33.85;;;21.70;;
39208;SDS011;24929;51.982;4.664;2023-05-10T03:18:35;37.90;;;26.30;;
39208;SDS011;24929;51.982;4.664;2023-05-10T03:21:07;36.13;;;24.38;;
39208;SDS011;24929;51.982;4.664;2023-05-10T03:23:43;30.70;;;24.10;;
39208;SDS011;24929;51.982;4.664;2023-05-10T03:26:14;35.65;;;26.10;;
39208;SDS011;24929;51.982;4.664;2023-05-10T03:28:45;37.50;;;25.25;;
39208;SDS011;24929;51.982;4.664;2023-05-10T03:31:13;39.47;;;23.27;;
39208;SDS011;24929;51.982;4.664;2023-05-10T03:33:48;37.60;;;25.40;;
39208;SDS011;24929;51.982;4.664;2023-05-10T03:36:15;45.22;;;27.60;;
39208;SDS011;24929;51.982;4.664;2023-05-10T03:38:41;37.30;;;26.00;;
39208;SDS011;24929;51.982;4.664;2023-05-10T03:41:06;38.42;;;26.10;;
39208;SDS011;24929;51.982;4.664;2023-05-10T03:43:31;37.05;;;26.48;;
39208;SDS011;24929;51.982;4.664;2023-05-10T03:45:57;36.85;;;24.92;;
39208;SDS011;24929;51.982;4.664;2023-05-10T03:48:22;36.10;;;26.48;;
39208;SDS011;24929;51.982;4.664;2023-05-10T03:50:47;34.75;;;25.35;;
39208;SDS011;24929;51.982;4.664;2023-05-10T03:53:14;49.40;;;27.52;;
39208;SDS011;24929;51.982;4.664;2023-05-10T03:55:39;34.58;;;25.85;;
39208;SDS011;24929;51.982;4.664;2023-05-10T03:58:05;37.65;;;24.85;;
39208;SDS011;24929;51.982;4.664;2023-05-10T04:00:30;30.55;;;23.77;;
39208;SDS011;24929;51.982;4.664;2023-05-10T04:02:56;35.25;;;25.83;;
39208;SDS011;24929;51.982;4.664;2023-05-10T04:05:21;39.45;;;26.63;;
39208;SDS011;24929;51.982;4.664;2023-05-10T04:07:47;40.55;;;25.35;;
39208;SDS011;24929;51.982;4.664;2023-05-10T04:10:14;40.20;;;25.33;;
39208;SDS011;24929;51.982;4.664;2023-05-10T04:12:41;35.35;;;24.50;;
39208;SDS011;24929;51.982;4.664;2023-05-10T04:15:06;37.53;;;25.52;;
39208;SDS011;24929;51.982;4.664;2023-05-10T04:17:32;39.22;;;27.08;;
39208;SDS011;24929;51.982;4.664;2023-05-10T04:19:58;48.28;;;28.77;;
39208;SDS011;24929;51.982;4.664;2023-05-10T04:22:23;43.90;;;30.42;;
39208;SDS011;24929;51.982;4.664;2023-05-10T04:24:49;43.05;;;29.85;;
39208;SDS011;24929;51.982;4.664;2023-05-10T04:27:14;41.67;;;29.95;;
39208;SDS011;24929;51.982;4.664;2023-05-10T04:29:39;35.00;;;27.77;;
39208;SDS011;24929;51.982;4.664;2023-05-10T04:32:05;34.05;;;28.02;;
39208;SDS011;24929;51.982;4.664;2023-05-10T04:34:30;48.50;;;29.40;;
39208;SDS011;24929;51.982;4.664;2023-05-10T04:36:55;44.63;;;28.55;;
39208;SDS011;24929;51.982;4.664;2023-05-10T04:39:21;35.63;;;28.20;;
39208;SDS011;24929;51.982;4.664;2023-05-10T04:41:46;38.78;;;25.77;;
39208;SDS011;24929;51.982;4.664;2023-05-10T04:44:11;35.50;;;25.00;;
39208;SDS011;24929;51.982;4.664;2023-05-10T04:46:44;38.35;;;24.88;;
39208;SDS011;24929;51.982;4.664;2023-05-10T04:49:09;30.65;;;22.75;;
39208;SDS011;24929;51.982;4.664;2023-05-10T04:51:34;31.27;;;24.92;;
39208;SDS011;24929;51.982;4.664;2023-05-10T04:54:00;35.20;;;23.50;;
39208;SDS011;24929;51.982;4.664;2023-05-10T04:56:25;32.30;;;23.67;;
39208;SDS011;24929;51.982;4.664;2023-05-10T04:58:50;37.05;;;23.42;;
39208;SDS011;24929;51.982;4.664;2023-05-10T05:01:16;34.17;;;23.35;;
39208;SDS011;24929;51.982;4.664;2023-05-10T05:03:41;29.48;;;23.00;;
39208;SDS011;24929;51.982;4.664;2023-05-10T05:06:07;35.30;;;22.83;;
39208;SDS011;24929;51.982;4.664;2023-05-10T05:08:32;36.30;;;24.00;;
39208;SDS011;24929;51.982;4.664;2023-05-10T05:10:58;38.67;;;24.38;;
39208;SDS011;24929;51.982;4.664;2023-05-10T05:13:24;34.92;;;24.15;;
39208;SDS011;24929;51.982;4.664;2023-05-10T05:15:49;34.85;;;22.40;;
39208;SDS011;24929;51.982;4.664;2023-05-10T05:18:15;37.20;;;23.60;;
39208;SDS011;24929;51.982;4.664;2023-05-10T05:20:40;33.50;;;24.27;;
39208;SDS011;24929;51.982;4.664;2023-05-10T05:23:05;34.03;;;23.88;;
39208;SDS011;24929;51.982;4.664;2023-05-10T05:25:31;45.67;;;25.73;;
39208;SDS011;24929;51.982;4.664;2023-05-10T05:27:56;44.53;;;24.95;;
39208;SDS011;24929;51.982;4.664;2023-05-10T05:30:21;36.47;;;23.55;;
39208;SDS011;24929;51.982;4.664;2023-05-10T05:32:47;38.85;;;21.35;;
39208;SDS011;24929;51.982;4.664;2023-05-10T05:35:12;32.90;;;18.95;;
39208;SDS011;24929;51.982;4.664;2023-05-10T05:37:38;26.00;;;18.08;;
39208;SDS011;24929;51.982;4.664;2023-05-10T05:40:03;25.88;;;17.52;;
39208;SDS011;24929;51.982;4.664;2023-05-10T05:42:30;26.65;;;15.48;;
39208;SDS011;24929;51.982;4.664;2023-05-10T05:44:56;19.00;;;14.25;;
39208;SDS011;24929;51.982;4.664;2023-05-10T05:47:21;19.40;;;13.30;;
39208;SDS011;24929;51.982;4.664;2023-05-10T05:49:46;21.75;;;12.88;;
39208;SDS011;24929;51.982;4.664;2023-05-10T05:52:12;18.65;;;11.50;;
39208;SDS011;24929;51.982;4.664;2023-05-10T05:54:37;13.40;;;10.13;;
39208;SDS011;24929;51.982;4.664;2023-05-10T05:57:03;13.57;;;9.00;;
39208;SDS011;24929;51.982;4.664;2023-05-10T05:59:28;13.10;;;8.68;;
39208;SDS011;24929;51.982;4.664;2023-05-10T06:01:54;13.65;;;8.57;;
39208;SDS011;24929;51.982;4.664;2023-05-10T06:04:19;14.10;;;9.07;;
39208;SDS011;24929;51.982;4.664;2023-05-10T06:06:44;11.32;;;8.68;;
39208;SDS011;24929;51.982;4.664;2023-05-10T06:09:10;10.27;;;7.60;;
39208;SDS011;24929;51.982;4.664;2023-05-10T06:11:36;15.25;;;8.23;;
39208;SDS011;24929;51.982;4.664;2023-05-10T06:14:02;10.32;;;6.85;;
39208;SDS011;24929;51.982;4.664;2023-05-10T06:16:29;10.20;;;6.55;;
39208;SDS011;24929;51.982;4.664;2023-05-10T06:18:54;10.70;;;7.28;;
39208;SDS011;24929;51.982;4.664;2023-05-10T06:21:20;9.40;;;6.63;;
39208;SDS011;24929;51.982;4.664;2023-05-10T06:23:46;7.43;;;5.50;;
39208;SDS011;24929;51.982;4.664;2023-05-10T06:26:11;6.93;;;5.22;;
39208;SDS011;24929;51.982;4.664;2023-05-10T06:28:36;13.27;;;5.88;;
39208;SDS011;24929;51.982;4.664;2023-05-10T06:31:05;6.90;;;4.88;;
39208;SDS011;24929;51.982;4.664;2023-05-10T06:33:31;5.95;;;4.57;;
39208;SDS011;24929;51.982;4.664;2023-05-10T06:35:57;8.60;;;4.40;;
39208;SDS011;24929;51.982;4.664;2023-05-10T06:38:23;8.85;;;4.88;;
39208;SDS011;24929;51.982;4.664;2023-05-10T06:40:48;6.22;;;4.90;;
39208;SDS011;24929;51.982;4.664;2023-05-10T06:43:13;4.95;;;4.25;;
39208;SDS011;24929;51.982;4.664;2023-05-10T06:45:39;5.63;;;4.82;;
39208;SDS011;24929;51.982;4.664;2023-05-10T06:48:05;7.03;;;5.68;;
39208;SDS011;24929;51.982;4.664;2023-05-10T06:50:31;6.45;;;5.32;;
39208;SDS011;24929;51.982;4.664;2023-05-10T06:52:56;6.63;;;5.07;;
39208;SDS011;24929;51.982;4.664;2023-05-10T06:55:22;5.47;;;4.32;;
39208;SDS011;24929;51.982;4.664;2023-05-10T06:57:47;5.38;;;4.88;;
39208;SDS011;24929;51.982;4.664;2023-05-10T07:00:13;9.05;;;5.38;;
39208;SDS011;24929;51.982;4.664;2023-05-10T07:02:39;7.65;;;6.13;;
39208;SDS011;24929;51.982;4.664;2023-05-10T07:05:04;5.18;;;4.30;;
39208;SDS011;24929;51.982;4.664;2023-05-10T07:07:30;4.18;;;3.45;;
39208;SDS011;24929;51.982;4.664;2023-05-10T07:09:56;4.95;;;3.70;;
39208;SDS011;24929;51.982;4.664;2023-05-10T07:12:22;4.65;;;4.25;;
39208;SDS011;24929;51.982;4.664;2023-05-10T07:14:48;6.15;;;4.15;;
39208;SDS011;24929;51.982;4.664;2023-05-10T07:17:13;5.35;;;4.32;;
39208;SDS011;24929;51.982;4.664;2023-05-10T07:19:38;4.72;;;3.75;;
39208;SDS011;24929;51.982;4.664;2023-05-10T07:22:04;4.30;;;3.55;;
39208;SDS011;24929;51.982;4.664;2023-05-10T07:24:29;4.30;;;3.70;;
39208;SDS011;24929;51.982;4.664;2023-05-10T07:26:56;3.95;;;3.45;;
39208;SDS011;24929;51.982;4.664;2023-05-10T07:29:21;8.00;;;4.65;;
39208;SDS011;24929;51.982;4.664;2023-05-10T07:31:46;4.28;;;3.85;;
39208;SDS011;24929;51.982;4.664;2023-05-10T07:34:12;5.85;;;4.55;;
39208;SDS011;24929;51.982;4.664;2023-05-10T07:36:37;7.10;;;4.28;;
39208;SDS011;24929;51.982;4.664;2023-05-10T07:39:02;5.22;;;3.50;;
39208;SDS011;24929;51.982;4.664;2023-05-10T07:41:28;3.83;;;3.30;;
39208;SDS011;24929;51.982;4.664;2023-05-10T07:43:53;4.03;;;3.50;;
39208;SDS011;24929;51.982;4.664;2023-05-10T07:46:19;5.07;;;4.15;;
39208;SDS011;24929;51.982;4.664;2023-05-10T07:48:44;5.72;;;4.35;;
39208;SDS011;24929;51.982;4.664;2023-05-10T07:51:10;6.45;;;4.63;;
39208;SDS011;24929;51.982;4.664;2023-05-10T07:53:35;7.75;;;5.00;;
39208;SDS011;24929;51.982;4.664;2023-05-10T07:56:19;5.05;;;4.38;;
39208;SDS011;24929;51.982;4.664;2023-05-10T08:01:20;6.22;;;4.32;;
39208;SDS011;24929;51.982;4.664;2023-05-10T08:03:45;5.72;;;4.70;;
39208;SDS011;24929;51.982;4.664;2023-05-10T08:06:11;6.97;;;4.55;;
39208;SDS011;24929;51.982;4.664;2023-05-10T08:08:37;5.25;;;4.47;;
39208;SDS011;24929;51.982;4.664;2023-05-10T08:11:03;7.32;;;5.07;;
39208;SDS011;24929;51.982;4.664;2023-05-10T08:13:28;7.10;;;4.57;;
39208;SDS011;24929;51.982;4.664;2023-05-10T08:15:54;5.43;;;4.45;;
39208;SDS011;24929;51.982;4.664;2023-05-10T08:18:19;6.35;;;4.43;;
39208;SDS011;24929;51.982;4.664;2023-05-10T08:20:45;8.40;;;4.88;;
39208;SDS011;24929;51.982;4.664;2023-05-10T08:23:12;6.70;;;4.55;;
39208;SDS011;24929;51.982;4.664;2023-05-10T08:25:38;8.57;;;5.75;;
39208;SDS011;24929;51.982;4.664;2023-05-10T08:28:03;5.13;;;4.45;;
39208;SDS011;24929;51.982;4.664;2023-05-10T08:30:29;5.70;;;4.80;;
39208;SDS011;24929;51.982;4.664;2023-05-10T08:32:54;6.25;;;4.28;;
39208;SDS011;24929;51.982;4.664;2023-05-10T08:35:19;6.80;;;5.22;;
39208;SDS011;24929;51.982;4.664;2023-05-10T08:37:45;7.50;;;5.28;;
39208;SDS011;24929;51.982;4.664;2023-05-10T08:40:11;6.82;;;6.05;;
39208;SDS011;24929;51.982;4.664;2023-05-10T08:42:39;9.63;;;6.25;;
39208;SDS011;24929;51.982;4.664;2023-05-10T08:45:07;8.70;;;6.07;;
39208;SDS011;24929;51.982;4.664;2023-05-10T08:47:35;7.97;;;6.47;;
39208;SDS011;24929;51.982;4.664;2023-05-10T08:50:02;8.25;;;6.18;;
39208;SDS011;24929;51.982;4.664;2023-05-10T08:52:28;10.23;;;5.88;;
39208;SDS011;24929;51.982;4.664;2023-05-10T08:54:55;5.40;;;4.90;;
39208;SDS011;24929;51.982;4.664;2023-05-10T08:57:21;8.57;;;6.05;;
39208;SDS011;24929;51.982;4.664;2023-05-10T08:59:46;6.85;;;4.82;;
39208;SDS011;24929;51.982;4.664;2023-05-10T09:02:12;7.07;;;5.47;;
39208;SDS011;24929;51.982;4.664;2023-05-10T09:04:38;5.43;;;4.85;;
39208;SDS011;24929;51.982;4.664;2023-05-10T09:07:04;5.13;;;4.35;;
39208;SDS011;24929;51.982;4.664;2023-05-10T09:09:31;5.53;;;4.57;;
39208;SDS011;24929;51.982;4.664;2023-05-10T09:11:57;5.30;;;3.83;;
39208;SDS011;24929;51.982;4.664;2023-05-10T09:14:23;8.60;;;3.88;;
39208;SDS011;24929;51.982;4.664;2023-05-10T09:16:49;4.15;;;3.80;;
39208;SDS011;24929;51.982;4.664;2023-05-10T09:19:14;4.75;;;3.80;;
39208;SDS011;24929;51.982;4.664;2023-05-10T09:21:40;5.43;;;3.70;;
39208;SDS011;24929;51.982;4.664;2023-05-10T09:24:06;5.15;;;3.80;;
39208;SDS011;24929;51.982;4.664;2023-05-10T09:26:32;3.63;;;3.30;;
39208;SDS011;24929;51.982;4.664;2023-05-10T09:28:59;4.30;;;3.28;;
39208;SDS011;24929;51.982;4.664;2023-05-10T09:31:42;3.47;;;3.10;;
39208;SDS011;24929;51.982;4.664;2023-05-10T09:34:15;4.28;;;3.13;;
39208;SDS011;24929;51.982;4.664;2023-05-10T09:36:55;6.15;;;3.00;;
39208;SDS011;24929;51.982;4.664;2023-05-10T09:39:32;4.45;;;2.38;;
39208;SDS011;24929;51.982;4.664;2023-05-10T09:42:02;4.88;;;2.13;;
39208;SDS011;24929;51.982;4.664;2023-05-10T09:44:29;3.10;;;2.58;;
39208;SDS011;24929;51.982;4.664;2023-05-10T09:46:55;2.95;;;2.70;;
39208;SDS011;24929;51.982;4.664;2023-05-10T09:49:21;3.63;;;2.25;;
39208;SDS011;24929;51.982;4.664;2023-05-10T09:51:47;2.13;;;1.92;;
39208;SDS011;24929;51.982;4.664;2023-05-10T09:54:13;2.30;;;1.80;;
39208;SDS011;24929;51.982;4.664;2023-05-10T09:56:40;6.78;;;6.07;;
39208;SDS011;24929;51.982;4.664;2023-05-10T09:59:07;8.85;;;7.05;;
39208;SDS011;24929;51.982;4.664;2023-05-10T10:01:34;9.25;;;7.22;;
39208;SDS011;24929;51.982;4.664;2023-05-10T10:04:07;8.20;;;7.38;;
39208;SDS011;24929;51.982;4.664;2023-05-10T10:06:37;9.18;;;7.35;;
39208;SDS011;24929;51.982;4.664;2023-05-10T10:09:03;8.75;;;6.45;;
39208;SDS011;24929;51.982;4.664;2023-05-10T10:11:30;8.10;;;6.95;;
39208;SDS011;24929;51.982;4.664;2023-05-10T10:13:56;13.50;;;7.10;;
39208;SDS011;24929;51.982;4.664;2023-05-10T10:16:21;9.75;;;6.97;;
39208;SDS011;24929;51.982;4.664;2023-05-10T10:18:47;8.48;;;6.47;;
39208;SDS011;24929;51.982;4.664;2023-05-10T10:21:13;8.10;;;7.30;;
39208;SDS011;24929;51.982;4.664;2023-05-10T10:23:40;6.72;;;6.03;;
39208;SDS011;24929;51.982;4.664;2023-05-10T10:26:05;6.70;;;5.20;;
39208;SDS011;24929;51.982;4.664;2023-05-10T10:31:32;4.20;;;3.40;;
39208;SDS011;24929;51.982;4.664;2023-05-10T10:34:08;4.38;;;3.55;;
39208;SDS011;24929;51.982;4.664;2023-05-10T10:36:45;6.97;;;4.03;;
39208;SDS011;24929;51.982;4.664;2023-05-10T10:39:12;4.40;;;3.95;;
39208;SDS011;24929;51.982;4.664;2023-05-10T10:41:39;5.85;;;4.35;;
39208;SDS011;24929;51.982;4.664;2023-05-10T10:54:57;3.90;;;3.30;;
39208;SDS011;24929;51.982;4.664;2023-05-10T11:00:28;4.70;;;3.17;;
39208;SDS011;24929;51.982;4.664;2023-05-10T11:02:56;4.38;;;3.83;;
39208;SDS011;24929;51.982;4.664;2023-05-10T11:10:38;5.13;;;3.38;;
39208;SDS011;24929;51.982;4.664;2023-05-10T11:13:06;4.53;;;4.13;;
39208;SDS011;24929;51.982;4.664;2023-05-10T11:15:36;6.88;;;4.78;;
39208;SDS011;24929;51.982;4.664;2023-05-10T11:20:57;5.80;;;3.85;;
39208;SDS011;24929;51.982;4.664;2023-05-10T11:23:29;6.82;;;4.15;;
39208;SDS011;24929;51.982;4.664;2023-05-10T11:25:58;6.07;;;3.50;;
39208;SDS011;24929;51.982;4.664;2023-05-10T11:28:25;6.25;;;3.05;;
39208;SDS011;24929;51.982;4.664;2023-05-10T11:30:51;4.07;;;3.03;;
39208;SDS011;24929;51.982;4.664;2023-05-10T11:33:17;4.45;;;3.60;;
39208;SDS011;24929;51.982;4.664;2023-05-10T11:35:44;3.53;;;2.95;;
39208;SDS011;24929;51.982;4.664;2023-05-10T11:38:10;4.07;;;2.80;;
39208;SDS011;24929;51.982;4.664;2023-05-10T11:40:37;5.60;;;3.40;;
39208;SDS011;24929;51.982;4.664;2023-05-10T11:43:03;3.92;;;3.25;;
39208;SDS011;24929;51.982;4.664;2023-05-10T11:45:31;4.65;;;3.80;;
39208;SDS011;24929;51.982;4.664;2023-05-10T11:47:57;6.43;;;4.55;;
39208;SDS011;24929;51.982;4.664;2023-05-10T11:50:23;3.83;;;3.42;;
39208;SDS011;24929;51.982;4.664;2023-05-10T11:52:52;4.93;;;4.25;;
39208;SDS011;24929;51.982;4.664;2023-05-10T11:55:19;6.93;;;3.92;;
39208;SDS011;24929;51.982;4.664;2023-05-10T11:57:44;4.55;;;3.75;;
39208;SDS011;24929;51.982;4.664;2023-05-10T12:00:11;7.15;;;4.30;;
39208;SDS011;24929;51.982;4.664;2023-05-10T12:02:37;4.90;;;4.30;;
39208;SDS011;24929;51.982;4.664;2023-05-10T12:05:03;8.10;;;5.05;;
39208;SDS011;24929;51.982;4.664;2023-05-10T12:07:30;4.85;;;4.40;;
39208;SDS011;24929;51.982;4.664;2023-05-10T12:10:29;5.78;;;4.78;;
39208;SDS011;24929;51.982;4.664;2023-05-10T12:12:51;5.97;;;4.75;;
39208;SDS011;24929;51.982;4.664;2023-05-10T12:15:21;4.60;;;3.88;;
39208;SDS011;24929;51.982;4.664;2023-05-10T12:17:48;4.72;;;4.03;;
39208;SDS011;24929;51.982;4.664;2023-05-10T12:22:49;4.75;;;4.35;;
39208;SDS011;24929;51.982;4.664;2023-05-10T12:25:15;5.35;;;4.45;;
39208;SDS011;24929;51.982;4.664;2023-05-10T12:27:47;9.60;;;5.13;;
39208;SDS011;24929;51.982;4.664;2023-05-10T12:30:20;5.78;;;4.65;;
39208;SDS011;24929;51.982;4.664;2023-05-10T12:32:53;6.07;;;4.70;;
39208;SDS011;24929;51.982;4.664;2023-05-10T12:35:26;5.30;;;4.45;;
39208;SDS011;24929;51.982;4.664;2023-05-10T12:37:51;5.03;;;4.20;;
39208;SDS011;24929;51.982;4.664;2023-05-10T12:40:16;6.00;;;3.75;;
39208;SDS011;24929;51.982;4.664;2023-05-10T12:42:42;6.75;;;4.68;;
39208;SDS011;24929;51.982;4.664;2023-05-10T12:45:10;5.10;;;4.28;;
39208;SDS011;24929;51.982;4.664;2023-05-10T12:47:36;5.22;;;3.75;;
39208;SDS011;24929;51.982;4.664;2023-05-10T12:50:02;4.65;;;2.92;;
39208;SDS011;24929;51.982;4.664;2023-05-10T12:52:28;7.72;;;3.33;;
39208;SDS011;24929;51.982;4.664;2023-05-10T12:54:54;5.85;;;3.85;;
39208;SDS011;24929;51.982;4.664;2023-05-10T12:57:22;6.00;;;4.10;;
39208;SDS011;24929;51.982;4.664;2023-05-10T12:59:48;8.10;;;4.43;;
39208;SDS011;24929;51.982;4.664;2023-05-10T13:02:13;6.25;;;4.28;;
39208;SDS011;24929;51.982;4.664;2023-05-10T13:04:39;8.52;;;4.03;;
39208;SDS011;24929;51.982;4.664;2023-05-10T13:07:07;4.43;;;3.25;;
39208;SDS011;24929;51.982;4.664;2023-05-10T13:09:32;7.75;;;3.20;;
39208;SDS011;24929;51.982;4.664;2023-05-10T13:11:58;3.58;;;3.17;;
39208;SDS011;24929;51.982;4.664;2023-05-10T13:14:24;4.00;;;3.15;;
39208;SDS011;24929;51.982;4.664;2023-05-10T13:16:49;4.63;;;3.45;;
39208;SDS011;24929;51.982;4.664;2023-05-10T13:19:15;4.20;;;3.30;;
39208;SDS011;24929;51.982;4.664;2023-05-10T13:21:41;4.95;;;3.78;;
39208;SDS011;24929;51.982;4.664;2023-05-10T13:24:07;4.38;;;3.22;;
39208;SDS011;24929;51.982;4.664;2023-05-10T13:26:32;4.20;;;3.22;;
39208;SDS011;24929;51.982;4.664;2023-05-10T13:28:58;5.88;;;4.35;;
39208;SDS011;24929;51.982;4.664;2023-05-10T13:31:24;4.18;;;3.78;;
39208;SDS011;24929;51.982;4.664;2023-05-10T13:33:50;6.93;;;4.90;;
39208;SDS011;24929;51.982;4.664;2023-05-10T13:36:15;25.90;;;8.40;;
39208;SDS011;24929;51.982;4.664;2023-05-10T13:38:40;15.75;;;5.38;;
39208;SDS011;24929;51.982;4.664;2023-05-10T13:41:06;10.43;;;4.03;;
39208;SDS011;24929;51.982;4.664;2023-05-10T13:43:31;4.45;;;3.95;;
39208;SDS011;24929;51.982;4.664;2023-05-10T13:45:57;76.22;;;12.27;;
39208;SDS011;24929;51.982;4.664;2023-05-10T13:48:22;10.90;;;5.68;;
39208;SDS011;24929;51.982;4.664;2023-05-10T13:50:47;7.35;;;3.33;;
39208;SDS011;24929;51.982;4.664;2023-05-10T13:53:13;119.18;;;24.58;;
39208;SDS011;24929;51.982;4.664;2023-05-10T13:55:39;6.03;;;4.35;;
39208;SDS011;24929;51.982;4.664;2023-05-10T13:58:04;7.75;;;4.57;;
39208;SDS011;24929;51.982;4.664;2023-05-10T14:00:30;49.72;;;8.52;;
39208;SDS011;24929;51.982;4.664;2023-05-10T14:02:55;8.70;;;3.90;;
39208;SDS011;24929;51.982;4.664;2023-05-10T14:05:21;26.60;;;8.25;;
39208;SDS011;24929;51.982;4.664;2023-05-10T14:07:46;7.22;;;3.70;;
39208;SDS011;24929;51.982;4.664;2023-05-10T14:10:12;5.78;;;4.03;;
39208;SDS011;24929;51.982;4.664;2023-05-10T14:12:37;4.88;;;3.60;;
39208;SDS011;24929;51.982;4.664;2023-05-10T14:15:03;3.88;;;3.22;;
39208;SDS011;24929;51.982;4.664;2023-05-10T14:17:30;4.90;;;2.90;;
39208;SDS011;24929;51.982;4.664;2023-05-10T14:19:56;6.18;;;3.22;;
39208;SDS011;24929;51.982;4.664;2023-05-10T14:22:22;3.75;;;2.88;;
39208;SDS011;24929;51.982;4.664;2023-05-10T14:24:47;3.42;;;2.78;;
39208;SDS011;24929;51.982;4.664;2023-05-10T14:27:13;3.83;;;2.75;;
39208;SDS011;24929;51.982;4.664;2023-05-10T14:29:39;4.43;;;2.95;;
39208;SDS011;24929;51.982;4.664;2023-05-10T14:32:04;10.23;;;2.90;;
39208;SDS011;24929;51.982;4.664;2023-05-10T14:34:30;4.88;;;3.35;;
39208;SDS011;24929;51.982;4.664;2023-05-10T14:36:55;4.13;;;2.83;;
39208;SDS011;24929;51.982;4.664;2023-05-10T14:39:21;6.50;;;2.55;;
39208;SDS011;24929;51.982;4.664;2023-05-10T14:41:47;2.90;;;2.50;;
39208;SDS011;24929;51.982;4.664;2023-05-10T14:44:13;3.90;;;2.80;;
39208;SDS011;24929;51.982;4.664;2023-05-10T14:46:40;4.28;;;3.30;;
39208;SDS011;24929;51.982;4.664;2023-05-10T14:49:06;3.70;;;2.70;;
39208;SDS011;24929;51.982;4.664;2023-05-10T14:51:32;3.30;;;2.80;;
39208;SDS011;24929;51.982;4.664;2023-05-10T14:53:58;4.55;;;3.03;;
39208;SDS011;24929;51.982;4.664;2023-05-10T14:56:23;4.70;;;3.45;;
39208;SDS011;24929;51.982;4.664;2023-05-10T14:58:50;5.43;;;3.72;;
39208;SDS011;24929;51.982;4.664;2023-05-10T15:01:16;4.13;;;3.58;;
39208;SDS011;24929;51.982;4.664;2023-05-10T15:03:41;5.25;;;3.25;;
39208;SDS011;24929;51.982;4.664;2023-05-10T15:06:07;4.55;;;3.50;;
39208;SDS011;24929;51.982;4.664;2023-05-10T15:08:33;5.05;;;3.70;;
39208;SDS011;24929;51.982;4.664;2023-05-10T15:10:59;5.15;;;4.10;;
39208;SDS011;24929;51.982;4.664;2023-05-10T15:13:24;3.65;;;2.88;;
39208;SDS011;24929;51.982;4.664;2023-05-10T15:15:50;3.63;;;2.83;;
39208;SDS011;24929;51.982;4.664;2023-05-10T15:18:15;4.88;;;3.50;;